sensor_id;sensor_type;location;lat;lon;timestamp;temperature;humidity
27540;DHT22;15906;52.046;4.724;2023-07-09T00:02:20;23.30;99.90
27540;DHT22;15906;52.046;4.724;2023-07-09T00:04:45;23.20;99.90
27540;DHT22;15906;52.046;4.724;2023-07-09T00:07:32;23.00;99.90
27540;DHT22;15906;52.046;4.724;2023-07-09T00:09:58;23.10;99.90
27540;DHT22;15906;52.046;4.724;2023-07-09T00:12:24;23.10;99.90
27540;DHT22;15906;52.046;4.724;2023-07-09T00:14:50;23.00;99.90
27540;DHT22;15906;52.046;4.724;2023-07-09T00:17:30;23.10;99.90
27540;DHT22;15906;52.046;4.724;2023-07-09T00:19:57;23.10;99.90
27540;DHT22;15906;52.046;4.724;2023-07-09T00:22:22;22.90;99.90
27540;DHT22;15906;52.046;4.724;2023-07-09T00:24:50;23.00;99.90
27540;DHT22;15906;52.046;4.724;2023-07-09T00:27:20;23.00;99.90
27540;DHT22;15906;52.046;4.724;2023-07-09T00:29:46;23.00;99.90
27540;DHT22;15906;52.046;4.724;2023-07-09T00:32:16;23.00;99.90
27540;DHT22;15906;52.046;4.724;2023-07-09T00:34:43;22.90;99.90
27540;DHT22;15906;52.046;4.724;2023-07-09T00:37:14;23.00;99.90
27540;DHT22;15906;52.046;4.724;2023-07-09T00:39:40;22.90;99.90
27540;DHT22;15906;52.046;4.724;2023-07-09T00:42:15;23.00;99.90
27540;DHT22;15906;52.046;4.724;2023-07-09T00:44:47;23.00;99.90
27540;DHT22;15906;52.046;4.724;2023-07-09T00:47:22;23.00;99.90
27540;DHT22;15906;52.046;4.724;2023-07-09T00:50:02;22.90;99.90
27540;DHT22;15906;52.046;4.724;2023-07-09T00:52:33;22.90;99.90
27540;DHT22;15906;52.046;4.724;2023-07-09T00:55:04;22.90;99.90
27540;DHT22;15906;52.046;4.724;2023-07-09T00:57:31;22.90;99.90
27540;DHT22;15906;52.046;4.724;2023-07-09T01:00:00;22.80;99.90
27540;DHT22;15906;52.046;4.724;2023-07-09T01:02:26;22.80;99.90
27540;DHT22;15906;52.046;4.724;2023-07-09T01:04:54;22.80;99.90
27540;DHT22;15906;52.046;4.724;2023-07-09T01:07:21;22.70;99.90
27540;DHT22;15906;52.046;4.724;2023-07-09T01:09:47;22.70;99.90
27540;DHT22;15906;52.046;4.724;2023-07-09T01:12:16;22.70;99.90
27540;DHT22;15906;52.046;4.724;2023-07-09T01:14:44;22.70;99.90
27540;DHT22;15906;52.046;4.724;2023-07-09T01:17:14;22.60;99.90
27540;DHT22;15906;52.046;4.724;2023-07-09T01:19:42;22.50;99.90
27540;DHT22;15906;52.046;4.724;2023-07-09T01:22:12;22.60;99.90
27540;DHT22;15906;52.046;4.724;2023-07-09T01:24:56;22.60;99.90
27540;DHT22;15906;52.046;4.724;2023-07-09T01:30:29;22.50;99.90
27540;DHT22;15906;52.046;4.724;2023-07-09T01:32:51;22.40;99.90
27540;DHT22;15906;52.046;4.724;2023-07-09T01:35:21;22.40;99.90
27540;DHT22;15906;52.046;4.724;2023-07-09T01:37:47;22.30;99.90
27540;DHT22;15906;52.046;4.724;2023-07-09T01:40:15;22.40;99.90
27540;DHT22;15906;52.046;4.724;2023-07-09T01:42:41;22.30;99.90
27540;DHT22;15906;52.046;4.724;2023-07-09T01:45:08;22.10;99.90
27540;DHT22;15906;52.046;4.724;2023-07-09T01:47:35;22.30;99.90
27540;DHT22;15906;52.046;4.724;2023-07-09T01:50:01;22.20;99.90
27540;DHT22;15906;52.046;4.724;2023-07-09T01:52:29;22.30;99.90
27540;DHT22;15906;52.046;4.724;2023-07-09T01:54:55;22.30;99.90
27540;DHT22;15906;52.046;4.724;2023-07-09T01:57:23;22.30;99.90
27540;DHT22;15906;52.046;4.724;2023-07-09T01:59:50;22.30;99.90
27540;DHT22;15906;52.046;4.724;2023-07-09T02:02:16;22.20;99.90
27540;DHT22;15906;52.046;4.724;2023-07-09T02:04:50;22.20;99.90
27540;DHT22;15906;52.046;4.724;2023-07-09T02:07:17;22.20;99.90
27540;DHT22;15906;52.046;4.724;2023-07-09T02:09:43;22.20;99.90
27540;DHT22;15906;52.046;4.724;2023-07-09T02:12:10;22.20;99.90
27540;DHT22;15906;52.046;4.724;2023-07-09T02:14:36;22.20;99.90
27540;DHT22;15906;52.046;4.724;2023-07-09T02:17:01;22.20;99.90
27540;DHT22;15906;52.046;4.724;2023-07-09T02:19:28;22.20;99.90
27540;DHT22;15906;52.046;4.724;2023-07-09T02:21:54;22.20;99.90
27540;DHT22;15906;52.046;4.724;2023-07-09T02:24:20;22.10;99.90
27540;DHT22;15906;52.046;4.724;2023-07-09T02:26:50;22.10;99.90
27540;DHT22;15906;52.046;4.724;2023-07-09T02:29:15;22.20;99.90
27540;DHT22;15906;52.046;4.724;2023-07-09T02:31:41;22.20;99.90
27540;DHT22;15906;52.046;4.724;2023-07-09T02:34:07;22.10;99.90
27540;DHT22;15906;52.046;4.724;2023-07-09T02:36:32;22.00;99.90
27540;DHT22;15906;52.046;4.724;2023-07-09T02:38:58;21.90;99.90
27540;DHT22;15906;52.046;4.724;2023-07-09T02:41:23;22.00;99.90
27540;DHT22;15906;52.046;4.724;2023-07-09T02:43:49;21.80;99.90
27540;DHT22;15906;52.046;4.724;2023-07-09T02:46:14;21.70;99.90
27540;DHT22;15906;52.046;4.724;2023-07-09T02:48:40;21.70;99.90
27540;DHT22;15906;52.046;4.724;2023-07-09T02:51:05;21.70;99.90
27540;DHT22;15906;52.046;4.724;2023-07-09T02:53:31;21.70;99.90
27540;DHT22;15906;52.046;4.724;2023-07-09T02:55:56;21.80;99.90
27540;DHT22;15906;52.046;4.724;2023-07-09T02:58:22;21.80;99.90
27540;DHT22;15906;52.046;4.724;2023-07-09T03:00:50;21.80;99.90
27540;DHT22;15906;52.046;4.724;2023-07-09T03:03:18;21.80;99.90
27540;DHT22;15906;52.046;4.724;2023-07-09T03:05:45;21.80;99.90
27540;DHT22;15906;52.046;4.724;2023-07-09T03:08:11;21.80;99.90
27540;DHT22;15906;52.046;4.724;2023-07-09T03:10:36;21.80;99.90
27540;DHT22;15906;52.046;4.724;2023-07-09T03:13:02;21.70;99.90
27540;DHT22;15906;52.046;4.724;2023-07-09T03:15:27;21.70;99.90
27540;DHT22;15906;52.046;4.724;2023-07-09T03:17:53;21.70;99.90
27540;DHT22;15906;52.046;4.724;2023-07-09T03:20:18;21.70;99.90
27540;DHT22;15906;52.046;4.724;2023-07-09T03:22:44;21.60;99.90
27540;DHT22;15906;52.046;4.724;2023-07-09T03:25:09;21.70;99.90
27540;DHT22;15906;52.046;4.724;2023-07-09T03:27:35;21.70;99.90
27540;DHT22;15906;52.046;4.724;2023-07-09T03:30:00;21.60;99.90
27540;DHT22;15906;52.046;4.724;2023-07-09T03:32:26;21.60;99.90
27540;DHT22;15906;52.046;4.724;2023-07-09T03:34:51;21.50;99.90
27540;DHT22;15906;52.046;4.724;2023-07-09T03:37:18;21.50;99.90
27540;DHT22;15906;52.046;4.724;2023-07-09T03:39:45;21.50;99.90
27540;DHT22;15906;52.046;4.724;2023-07-09T03:42:11;21.40;99.90
27540;DHT22;15906;52.046;4.724;2023-07-09T03:44:37;21.40;99.90
27540;DHT22;15906;52.046;4.724;2023-07-09T03:47:03;21.40;99.90
27540;DHT22;15906;52.046;4.724;2023-07-09T03:49:29;21.40;99.90
27540;DHT22;15906;52.046;4.724;2023-07-09T03:51:54;21.50;99.90
27540;DHT22;15906;52.046;4.724;2023-07-09T03:54:20;21.40;99.90
27540;DHT22;15906;52.046;4.724;2023-07-09T03:56:45;21.40;99.90
27540;DHT22;15906;52.046;4.724;2023-07-09T03:59:11;21.50;99.90
27540;DHT22;15906;52.046;4.724;2023-07-09T04:01:37;21.50;99.90
27540;DHT22;15906;52.046;4.724;2023-07-09T04:04:02;21.50;99.90
27540;DHT22;15906;52.046;4.724;2023-07-09T04:06:28;21.50;99.90
27540;DHT22;15906;52.046;4.724;2023-07-09T04:08:54;21.40;99.90
27540;DHT22;15906;52.046;4.724;2023-07-09T04:11:20;21.60;99.90
27540;DHT22;15906;52.046;4.724;2023-07-09T04:13:45;21.60;99.90
27540;DHT22;15906;52.046;4.724;2023-07-09T04:16:11;21.60;99.90
27540;DHT22;15906;52.046;4.724;2023-07-09T04:18:36;21.60;99.90
27540;DHT22;15906;52.046;4.724;2023-07-09T04:21:02;21.60;99.90
27540;DHT22;15906;52.046;4.724;2023-07-09T04:23:28;21.60;99.90
27540;DHT22;15906;52.046;4.724;2023-07-09T04:25:53;21.70;99.90
27540;DHT22;15906;52.046;4.724;2023-07-09T04:28:19;21.70;99.90
27540;DHT22;15906;52.046;4.724;2023-07-09T04:30:49;21.70;99.90
27540;DHT22;15906;52.046;4.724;2023-07-09T04:33:15;21.60;99.90
27540;DHT22;15906;52.046;4.724;2023-07-09T04:35:44;21.50;99.90
27540;DHT22;15906;52.046;4.724;2023-07-09T04:38:10;21.60;99.90
27540;DHT22;15906;52.046;4.724;2023-07-09T04:40:35;21.70;99.90
27540;DHT22;15906;52.046;4.724;2023-07-09T04:43:01;21.60;99.90
27540;DHT22;15906;52.046;4.724;2023-07-09T04:45:26;21.70;99.90
27540;DHT22;15906;52.046;4.724;2023-07-09T04:47:52;21.70;99.90
27540;DHT22;15906;52.046;4.724;2023-07-09T04:50:18;21.70;99.90
27540;DHT22;15906;52.046;4.724;2023-07-09T04:52:43;21.80;99.90
27540;DHT22;15906;52.046;4.724;2023-07-09T04:55:09;21.80;99.90
27540;DHT22;15906;52.046;4.724;2023-07-09T04:57:36;21.80;99.90
27540;DHT22;15906;52.046;4.724;2023-07-09T05:00:03;21.90;99.90
27540;DHT22;15906;52.046;4.724;2023-07-09T05:02:30;21.80;99.90
27540;DHT22;15906;52.046;4.724;2023-07-09T05:04:56;21.80;99.90
27540;DHT22;15906;52.046;4.724;2023-07-09T05:07:21;21.90;99.90
27540;DHT22;15906;52.046;4.724;2023-07-09T05:09:47;21.90;99.90
27540;DHT22;15906;52.046;4.724;2023-07-09T05:12:13;22.00;99.90
27540;DHT22;15906;52.046;4.724;2023-07-09T05:14:39;22.10;99.90
27540;DHT22;15906;52.046;4.724;2023-07-09T05:17:05;22.10;99.90
27540;DHT22;15906;52.046;4.724;2023-07-09T05:19:31;22.20;99.90
27540;DHT22;15906;52.046;4.724;2023-07-09T05:21:57;22.40;99.90
27540;DHT22;15906;52.046;4.724;2023-07-09T05:24:23;22.30;99.90
27540;DHT22;15906;52.046;4.724;2023-07-09T05:26:48;22.30;99.90
27540;DHT22;15906;52.046;4.724;2023-07-09T05:29:14;22.40;99.90
27540;DHT22;15906;52.046;4.724;2023-07-09T05:31:39;22.50;99.90
27540;DHT22;15906;52.046;4.724;2023-07-09T05:34:07;22.60;99.90
27540;DHT22;15906;52.046;4.724;2023-07-09T05:36:33;22.60;99.90
27540;DHT22;15906;52.046;4.724;2023-07-09T05:38:58;22.70;99.90
27540;DHT22;15906;52.046;4.724;2023-07-09T05:41:24;22.80;99.90
27540;DHT22;15906;52.046;4.724;2023-07-09T05:43:51;22.80;99.90
27540;DHT22;15906;52.046;4.724;2023-07-09T05:46:17;22.80;99.90
27540;DHT22;15906;52.046;4.724;2023-07-09T05:48:43;22.90;99.90
27540;DHT22;15906;52.046;4.724;2023-07-09T05:51:08;23.00;99.90
27540;DHT22;15906;52.046;4.724;2023-07-09T05:53:34;23.00;99.90
27540;DHT22;15906;52.046;4.724;2023-07-09T05:56:00;23.00;99.90
27540;DHT22;15906;52.046;4.724;2023-07-09T05:58:25;23.10;99.90
27540;DHT22;15906;52.046;4.724;2023-07-09T06:00:52;23.10;99.90
27540;DHT22;15906;52.046;4.724;2023-07-09T06:03:26;23.20;99.90
27540;DHT22;15906;52.046;4.724;2023-07-09T06:05:53;23.20;99.90
27540;DHT22;15906;52.046;4.724;2023-07-09T06:08:19;23.40;99.90
27540;DHT22;15906;52.046;4.724;2023-07-09T06:10:56;23.50;99.90
27540;DHT22;15906;52.046;4.724;2023-07-09T06:13:23;23.60;99.90
27540;DHT22;15906;52.046;4.724;2023-07-09T06:15:50;23.70;99.90
27540;DHT22;15906;52.046;4.724;2023-07-09T06:18:16;23.70;99.90
27540;DHT22;15906;52.046;4.724;2023-07-09T06:20:49;23.80;99.90
27540;DHT22;15906;52.046;4.724;2023-07-09T06:23:15;23.90;99.90
27540;DHT22;15906;52.046;4.724;2023-07-09T06:25:42;24.00;99.90
27540;DHT22;15906;52.046;4.724;2023-07-09T06:28:07;24.00;99.90
27540;DHT22;15906;52.046;4.724;2023-07-09T06:30:33;24.00;99.90
27540;DHT22;15906;52.046;4.724;2023-07-09T06:32:58;24.00;99.90
27540;DHT22;15906;52.046;4.724;2023-07-09T06:35:24;24.20;99.90
27540;DHT22;15906;52.046;4.724;2023-07-09T06:37:49;24.40;99.90
27540;DHT22;15906;52.046;4.724;2023-07-09T06:40:15;24.50;99.90
27540;DHT22;15906;52.046;4.724;2023-07-09T06:42:41;24.60;99.90
27540;DHT22;15906;52.046;4.724;2023-07-09T06:45:06;24.80;99.90
27540;DHT22;15906;52.046;4.724;2023-07-09T06:47:32;24.80;99.90
27540;DHT22;15906;52.046;4.724;2023-07-09T06:49:58;25.00;99.90
27540;DHT22;15906;52.046;4.724;2023-07-09T06:52:23;25.00;99.90
27540;DHT22;15906;52.046;4.724;2023-07-09T06:54:49;25.10;99.90
27540;DHT22;15906;52.046;4.724;2023-07-09T06:57:15;25.20;99.90
27540;DHT22;15906;52.046;4.724;2023-07-09T06:59:40;25.30;99.90
27540;DHT22;15906;52.046;4.724;2023-07-09T07:02:06;25.40;99.90
27540;DHT22;15906;52.046;4.724;2023-07-09T07:04:31;25.50;99.90
27540;DHT22;15906;52.046;4.724;2023-07-09T07:06:57;25.50;99.90
27540;DHT22;15906;52.046;4.724;2023-07-09T07:09:23;25.70;99.90
27540;DHT22;15906;52.046;4.724;2023-07-09T07:11:49;25.80;99.90
27540;DHT22;15906;52.046;4.724;2023-07-09T07:14:15;25.90;99.90
27540;DHT22;15906;52.046;4.724;2023-07-09T07:16:40;25.90;99.90
27540;DHT22;15906;52.046;4.724;2023-07-09T07:19:06;25.90;99.90
27540;DHT22;15906;52.046;4.724;2023-07-09T07:21:32;26.00;99.90
27540;DHT22;15906;52.046;4.724;2023-07-09T07:23:57;26.00;99.90
27540;DHT22;15906;52.046;4.724;2023-07-09T07:26:23;26.10;99.90
27540;DHT22;15906;52.046;4.724;2023-07-09T07:28:49;26.40;99.90
27540;DHT22;15906;52.046;4.724;2023-07-09T07:31:15;26.30;99.90
27540;DHT22;15906;52.046;4.724;2023-07-09T07:33:41;26.40;99.90
27540;DHT22;15906;52.046;4.724;2023-07-09T07:36:10;26.40;99.90
27540;DHT22;15906;52.046;4.724;2023-07-09T07:38:35;26.50;99.90
27540;DHT22;15906;52.046;4.724;2023-07-09T07:41:01;26.40;99.90
27540;DHT22;15906;52.046;4.724;2023-07-09T07:43:27;26.40;99.90
27540;DHT22;15906;52.046;4.724;2023-07-09T07:45:53;26.60;99.90
27540;DHT22;15906;52.046;4.724;2023-07-09T07:48:19;26.50;99.90
27540;DHT22;15906;52.046;4.724;2023-07-09T07:50:45;26.60;99.90
27540;DHT22;15906;52.046;4.724;2023-07-09T07:53:14;26.70;99.90
27540;DHT22;15906;52.046;4.724;2023-07-09T07:55:40;26.70;99.90
27540;DHT22;15906;52.046;4.724;2023-07-09T07:58:06;26.80;99.90
27540;DHT22;15906;52.046;4.724;2023-07-09T08:00:32;26.80;99.90
27540;DHT22;15906;52.046;4.724;2023-07-09T08:02:57;26.80;99.90
27540;DHT22;15906;52.046;4.724;2023-07-09T08:05:23;26.80;99.90
27540;DHT22;15906;52.046;4.724;2023-07-09T08:07:49;27.00;99.90
27540;DHT22;15906;52.046;4.724;2023-07-09T08:10:14;27.00;99.90
27540;DHT22;15906;52.046;4.724;2023-07-09T08:12:40;26.90;99.90
27540;DHT22;15906;52.046;4.724;2023-07-09T08:15:07;26.90;99.90
27540;DHT22;15906;52.046;4.724;2023-07-09T08:17:32;26.80;99.90
27540;DHT22;15906;52.046;4.724;2023-07-09T08:19:58;26.60;99.50
27540;DHT22;15906;52.046;4.724;2023-07-09T08:22:24;26.60;99.90
27540;DHT22;15906;52.046;4.724;2023-07-09T08:24:50;26.40;99.90
27540;DHT22;15906;52.046;4.724;2023-07-09T08:27:16;26.40;99.90
27540;DHT22;15906;52.046;4.724;2023-07-09T08:29:42;26.50;99.90
27540;DHT22;15906;52.046;4.724;2023-07-09T08:32:09;26.60;99.90
27540;DHT22;15906;52.046;4.724;2023-07-09T08:34:35;26.80;99.90
27540;DHT22;15906;52.046;4.724;2023-07-09T08:37:01;26.90;99.90
27540;DHT22;15906;52.046;4.724;2023-07-09T08:39:27;27.00;99.90
27540;DHT22;15906;52.046;4.724;2023-07-09T08:42:00;27.00;99.90
27540;DHT22;15906;52.046;4.724;2023-07-09T08:44:44;26.90;99.90
27540;DHT22;15906;52.046;4.724;2023-07-09T08:47:32;26.90;99.90
27540;DHT22;15906;52.046;4.724;2023-07-09T08:50:04;26.70;99.20
27540;DHT22;15906;52.046;4.724;2023-07-09T08:52:39;26.70;99.90
27540;DHT22;15906;52.046;4.724;2023-07-09T08:55:14;26.90;99.90
27540;DHT22;15906;52.046;4.724;2023-07-09T08:57:43;27.40;99.90
27540;DHT22;15906;52.046;4.724;2023-07-09T09:00:21;27.60;99.90
27540;DHT22;15906;52.046;4.724;2023-07-09T09:02:56;28.10;99.90
27540;DHT22;15906;52.046;4.724;2023-07-09T09:05:24;28.30;98.10
27540;DHT22;15906;52.046;4.724;2023-07-09T09:08:02;28.40;98.80
27540;DHT22;15906;52.046;4.724;2023-07-09T09:10:44;28.40;99.20
27540;DHT22;15906;52.046;4.724;2023-07-09T09:13:14;28.30;97.60
27540;DHT22;15906;52.046;4.724;2023-07-09T09:15:43;28.50;99.20
27540;DHT22;15906;52.046;4.724;2023-07-09T09:18:22;28.60;98.00
27540;DHT22;15906;52.046;4.724;2023-07-09T09:21:10;28.90;99.40
27540;DHT22;15906;52.046;4.724;2023-07-09T09:23:41;29.00;98.70
27540;DHT22;15906;52.046;4.724;2023-07-09T09:26:28;29.10;99.90
27540;DHT22;15906;52.046;4.724;2023-07-09T09:28:55;29.10;98.10
27540;DHT22;15906;52.046;4.724;2023-07-09T09:31:21;29.20;98.60
27540;DHT22;15906;52.046;4.724;2023-07-09T09:33:49;29.00;98.40
27540;DHT22;15906;52.046;4.724;2023-07-09T09:36:21;28.90;99.80
27540;DHT22;15906;52.046;4.724;2023-07-09T09:38:47;28.90;98.10
27540;DHT22;15906;52.046;4.724;2023-07-09T09:41:20;28.70;99.70
27540;DHT22;15906;52.046;4.724;2023-07-09T09:43:48;28.80;99.00
27540;DHT22;15906;52.046;4.724;2023-07-09T09:46:26;28.90;99.80
27540;DHT22;15906;52.046;4.724;2023-07-09T09:48:56;29.20;97.40
27540;DHT22;15906;52.046;4.724;2023-07-09T09:51:24;29.30;98.20
27540;DHT22;15906;52.046;4.724;2023-07-09T09:53:52;29.50;98.50
27540;DHT22;15906;52.046;4.724;2023-07-09T09:56:25;29.70;97.40
27540;DHT22;15906;52.046;4.724;2023-07-09T09:58:53;29.80;97.80
27540;DHT22;15906;52.046;4.724;2023-07-09T10:01:28;29.80;97.30
27540;DHT22;15906;52.046;4.724;2023-07-09T10:03:56;29.60;95.80
27540;DHT22;15906;52.046;4.724;2023-07-09T10:06:35;29.30;96.10
27540;DHT22;15906;52.046;4.724;2023-07-09T10:14:21;29.70;97.50
27540;DHT22;15906;52.046;4.724;2023-07-09T10:16:51;30.00;98.60
27540;DHT22;15906;52.046;4.724;2023-07-09T10:19:33;30.10;97.90
27540;DHT22;15906;52.046;4.724;2023-07-09T10:22:06;30.50;97.60
27540;DHT22;15906;52.046;4.724;2023-07-09T10:35:29;30.50;96.80
27540;DHT22;15906;52.046;4.724;2023-07-09T10:40:41;30.60;97.50
27540;DHT22;15906;52.046;4.724;2023-07-09T10:43:15;30.70;98.30
27540;DHT22;15906;52.046;4.724;2023-07-09T10:46:03;30.90;98.20
27540;DHT22;15906;52.046;4.724;2023-07-09T10:50:56;31.20;95.20
27540;DHT22;15906;52.046;4.724;2023-07-09T10:53:42;31.30;96.20
27540;DHT22;15906;52.046;4.724;2023-07-09T10:56:17;31.30;95.20
27540;DHT22;15906;52.046;4.724;2023-07-09T10:59:03;31.40;96.20
27540;DHT22;15906;52.046;4.724;2023-07-09T11:01:35;31.30;95.50
27540;DHT22;15906;52.046;4.724;2023-07-09T11:04:11;31.00;94.20
27540;DHT22;15906;52.046;4.724;2023-07-09T11:06:43;30.90;96.20
27540;DHT22;15906;52.046;4.724;2023-07-09T11:09:33;30.90;95.20
27540;DHT22;15906;52.046;4.724;2023-07-09T11:12:08;30.90;96.10
27540;DHT22;15906;52.046;4.724;2023-07-09T11:14:57;31.00;97.50
27540;DHT22;15906;52.046;4.724;2023-07-09T11:17:26;31.00;94.90
27540;DHT22;15906;52.046;4.724;2023-07-09T11:19:55;31.30;95.40
27540;DHT22;15906;52.046;4.724;2023-07-09T11:22:37;31.20;95.80
27540;DHT22;15906;52.046;4.724;2023-07-09T11:25:14;31.30;95.90
27540;DHT22;15906;52.046;4.724;2023-07-09T11:27:53;31.40;95.90
27540;DHT22;15906;52.046;4.724;2023-07-09T11:30:28;31.10;94.80
27540;DHT22;15906;52.046;4.724;2023-07-09T11:33:04;30.90;96.70
27540;DHT22;15906;52.046;4.724;2023-07-09T11:35:46;30.70;97.00
27540;DHT22;15906;52.046;4.724;2023-07-09T11:38:23;30.70;96.50
27540;DHT22;15906;52.046;4.724;2023-07-09T11:40:50;30.60;97.80
27540;DHT22;15906;52.046;4.724;2023-07-09T11:45:53;30.70;96.10
27540;DHT22;15906;52.046;4.724;2023-07-09T11:48:25;30.50;97.50
27540;DHT22;15906;52.046;4.724;2023-07-09T11:50:53;30.30;97.90
27540;DHT22;15906;52.046;4.724;2023-07-09T11:53:45;30.30;98.40
27540;DHT22;15906;52.046;4.724;2023-07-09T11:56:12;30.30;98.10
27540;DHT22;15906;52.046;4.724;2023-07-09T11:58:48;30.30;98.40
27540;DHT22;15906;52.046;4.724;2023-07-09T12:01:17;30.50;98.50
27540;DHT22;15906;52.046;4.724;2023-07-09T12:03:45;30.90;97.80
27540;DHT22;15906;52.046;4.724;2023-07-09T12:06:21;30.70;95.90
27540;DHT22;15906;52.046;4.724;2023-07-09T12:08:48;30.60;96.80
27540;DHT22;15906;52.046;4.724;2023-07-09T12:11:26;30.60;97.70
27540;DHT22;15906;52.046;4.724;2023-07-09T12:13:53;30.50;96.40
27540;DHT22;15906;52.046;4.724;2023-07-09T12:16:28;30.10;96.80
27540;DHT22;15906;52.046;4.724;2023-07-09T12:18:54;29.90;96.80
27540;DHT22;15906;52.046;4.724;2023-07-09T12:21:21;29.80;97.20
27540;DHT22;15906;52.046;4.724;2023-07-09T12:23:47;29.60;97.70
27540;DHT22;15906;52.046;4.724;2023-07-09T12:26:16;29.50;97.50
27540;DHT22;15906;52.046;4.724;2023-07-09T12:28:42;29.20;97.80
27540;DHT22;15906;52.046;4.724;2023-07-09T12:31:15;29.20;98.00
27540;DHT22;15906;52.046;4.724;2023-07-09T12:33:52;29.20;98.20
27540;DHT22;15906;52.046;4.724;2023-07-09T12:36:18;29.10;97.70
27540;DHT22;15906;52.046;4.724;2023-07-09T12:38:50;29.00;97.00
27540;DHT22;15906;52.046;4.724;2023-07-09T12:41:22;28.70;97.40
27540;DHT22;15906;52.046;4.724;2023-07-09T12:43:49;28.60;98.60
27540;DHT22;15906;52.046;4.724;2023-07-09T12:46:16;28.50;98.40
27540;DHT22;15906;52.046;4.724;2023-07-09T12:48:41;28.30;98.50
27540;DHT22;15906;52.046;4.724;2023-07-09T12:51:08;27.70;98.80
27540;DHT22;15906;52.046;4.724;2023-07-09T12:53:36;27.30;99.90
27540;DHT22;15906;52.046;4.724;2023-07-09T12:56:02;27.10;99.90
27540;DHT22;15906;52.046;4.724;2023-07-09T12:58:33;26.90;99.90
27540;DHT22;15906;52.046;4.724;2023-07-09T13:01:07;26.70;99.90
27540;DHT22;15906;52.046;4.724;2023-07-09T13:03:33;26.70;99.90
27540;DHT22;15906;52.046;4.724;2023-07-09T13:06:00;26.50;99.90
27540;DHT22;15906;52.046;4.724;2023-07-09T13:08:28;26.30;99.90
27540;DHT22;15906;52.046;4.724;2023-07-09T13:10:54;26.20;99.90
27540;DHT22;15906;52.046;4.724;2023-07-09T13:13:22;26.10;99.90
27540;DHT22;15906;52.046;4.724;2023-07-09T13:15:54;26.10;99.90
27540;DHT22;15906;52.046;4.724;2023-07-09T13:18:23;25.90;99.90
27540;DHT22;15906;52.046;4.724;2023-07-09T13:20:49;25.70;99.90
27540;DHT22;15906;52.046;4.724;2023-07-09T13:23:20;25.60;99.90
27540;DHT22;15906;52.046;4.724;2023-07-09T13:25:47;25.60;99.90
27540;DHT22;15906;52.046;4.724;2023-07-09T13:30:55;25.80;99.90
27540;DHT22;15906;52.046;4.724;2023-07-09T13:33:22;25.90;99.90
27540;DHT22;15906;52.046;4.724;2023-07-09T13:35:48;26.10;99.90
27540;DHT22;15906;52.046;4.724;2023-07-09T13:38:17;26.10;99.90
27540;DHT22;15906;52.046;4.724;2023-07-09T13:40:46;26.00;99.90
27540;DHT22;15906;52.046;4.724;2023-07-09T13:43:32;25.90;99.90
27540;DHT22;15906;52.046;4.724;2023-07-09T13:46:00;25.90;99.90
27540;DHT22;15906;52.046;4.724;2023-07-09T13:48:29;25.70;99.90
27540;DHT22;15906;52.046;4.724;2023-07-09T13:50:56;25.70;99.90
27540;DHT22;15906;52.046;4.724;2023-07-09T13:53:26;25.50;99.90
27540;DHT22;15906;52.046;4.724;2023-07-09T13:55:53;25.40;99.90
27540;DHT22;15906;52.046;4.724;2023-07-09T13:58:21;25.00;99.90
27540;DHT22;15906;52.046;4.724;2023-07-09T14:00:49;24.80;99.90
27540;DHT22;15906;52.046;4.724;2023-07-09T14:03:24;24.60;99.90
27540;DHT22;15906;52.046;4.724;2023-07-09T14:05:51;24.40;99.90
27540;DHT22;15906;52.046;4.724;2023-07-09T14:08:17;24.30;99.90
27540;DHT22;15906;52.046;4.724;2023-07-09T14:10:44;24.30;99.90
27540;DHT22;15906;52.046;4.724;2023-07-09T14:13:19;24.10;99.90
27540;DHT22;15906;52.046;4.724;2023-07-09T14:15:45;23.90;99.90
27540;DHT22;15906;52.046;4.724;2023-07-09T14:18:19;23.80;99.90
27540;DHT22;15906;52.046;4.724;2023-07-09T14:20:45;23.70;99.90
27540;DHT22;15906;52.046;4.724;2023-07-09T14:23:16;23.60;99.90
27540;DHT22;15906;52.046;4.724;2023-07-09T14:25:43;23.50;99.90
27540;DHT22;15906;52.046;4.724;2023-07-09T14:28:11;23.60;99.90
27540;DHT22;15906;52.046;4.724;2023-07-09T14:30:37;23.60;99.90
27540;DHT22;15906;52.046;4.724;2023-07-09T14:33:03;23.30;99.90
27540;DHT22;15906;52.046;4.724;2023-07-09T14:35:30;23.10;99.90
27540;DHT22;15906;52.046;4.724;2023-07-09T14:37:55;22.60;99.90
27540;DHT22;15906;52.046;4.724;2023-07-09T14:40:22;22.20;99.90
27540;DHT22;15906;52.046;4.724;2023-07-09T14:42:48;21.90;99.90
27540;DHT22;15906;52.046;4.724;2023-07-09T14:45:25;21.60;99.90
27540;DHT22;15906;52.046;4.724;2023-07-09T14:47:54;21.40;99.90
27540;DHT22;15906;52.046;4.724;2023-07-09T14:50:20;21.20;99.90
27540;DHT22;15906;52.046;4.724;2023-07-09T14:52:47;21.10;99.90
27540;DHT22;15906;52.046;4.724;2023-07-09T14:55:17;21.10;99.90
27540;DHT22;15906;52.046;4.724;2023-07-09T14:57:44;21.20;99.90
27540;DHT22;15906;52.046;4.724;2023-07-09T15:00:19;21.20;99.90
27540;DHT22;15906;52.046;4.724;2023-07-09T15:02:46;21.20;99.90
27540;DHT22;15906;52.046;4.724;2023-07-09T15:05:16;21.40;99.90
27540;DHT22;15906;52.046;4.724;2023-07-09T15:07:42;21.30;99.90
27540;DHT22;15906;52.046;4.724;2023-07-09T15:10:16;21.40;99.90
27540;DHT22;15906;52.046;4.724;2023-07-09T15:12:43;21.40;99.90
27540;DHT22;15906;52.046;4.724;2023-07-09T15:15:30;21.40;99.90
27540;DHT22;15906;52.046;4.724;2023-07-09T15:17:58;21.60;99.90
27540;DHT22;15906;52.046;4.724;2023-07-09T15:20:26;21.50;99.90
27540;DHT22;15906;52.046;4.724;2023-07-09T15:22:54;21.50;99.90
27540;DHT22;15906;52.046;4.724;2023-07-09T15:25:22;21.40;99.90
27540;DHT22;15906;52.046;4.724;2023-07-09T15:27:48;21.40;99.90
27540;DHT22;15906;52.046;4.724;2023-07-09T15:30:19;21.40;99.90
27540;DHT22;15906;52.046;4.724;2023-07-09T15:32:47;21.40;99.90
27540;DHT22;15906;52.046;4.724;2023-07-09T15:35:15;21.40;99.90
27540;DHT22;15906;52.046;4.724;2023-07-09T15:37:41;21.30;99.90
27540;DHT22;15906;52.046;4.724;2023-07-09T15:40:24;21.40;99.90
27540;DHT22;15906;52.046;4.724;2023-07-09T15:42:53;21.40;99.90
27540;DHT22;15906;52.046;4.724;2023-07-09T15:45:19;21.40;99.90
27540;DHT22;15906;52.046;4.724;2023-07-09T15:47:46;21.40;99.90
27540;DHT22;15906;52.046;4.724;2023-07-09T15:50:15;21.40;99.90
27540;DHT22;15906;52.046;4.724;2023-07-09T15:52:42;21.50;99.90
27540;DHT22;15906;52.046;4.724;2023-07-09T15:55:17;21.40;99.90
27540;DHT22;15906;52.046;4.724;2023-07-09T15:57:44;21.40;99.90
27540;DHT22;15906;52.046;4.724;2023-07-09T16:00:22;21.50;99.90
27540;DHT22;15906;52.046;4.724;2023-07-09T16:02:49;21.60;99.90
27540;DHT22;15906;52.046;4.724;2023-07-09T16:05:22;21.60;99.90
27540;DHT22;15906;52.046;4.724;2023-07-09T16:07:52;21.70;99.90
27540;DHT22;15906;52.046;4.724;2023-07-09T16:10:20;21.60;99.90